createdAt,value
2022-12-03T00:00:12.603Z,9.40
2022-12-03T00:02:41.381Z,8.60
2022-12-03T00:05:11.080Z,9.30
2022-12-03T00:07:39.043Z,8.65
2022-12-03T00:10:08.288Z,9.90
2022-12-03T00:12:36.169Z,8.70
2022-12-03T00:15:04.375Z,9.65
2022-12-03T00:17:33.435Z,8.82
2022-12-03T00:20:01.439Z,8.73
2022-12-03T00:22:30.679Z,8.98
2022-12-03T00:24:58.560Z,9.13
2022-12-03T00:27:28.163Z,8.60
2022-12-03T00:29:56.123Z,8.70
2022-12-03T00:32:24.026Z,9.13
2022-12-03T00:34:52.153Z,9.45
2022-12-03T00:37:20.280Z,9.07
2022-12-03T00:39:49.502Z,9.15
2022-12-03T00:42:17.345Z,8.82
2022-12-03T00:44:45.245Z,8.85
2022-12-03T00:47:13.175Z,9.40
2022-12-03T00:49:41.305Z,9.23
2022-12-03T00:52:09.206Z,8.43
2022-12-03T00:54:37.075Z,8.63
2022-12-03T00:57:06.321Z,9.00
2022-12-03T00:59:34.186Z,8.60
2022-12-03T01:02:02.270Z,9.05
2022-12-03T01:04:30.220Z,8.75
2022-12-03T01:06:58.084Z,8.68
2022-12-03T01:09:26.010Z,8.93
2022-12-03T01:11:53.986Z,8.75
2022-12-03T01:14:23.391Z,8.88
2022-12-03T01:16:51.403Z,9.10
2022-12-03T01:19:19.523Z,9.02
2022-12-03T01:21:48.573Z,9.55
2022-12-03T01:24:16.486Z,8.77
2022-12-03T01:26:44.428Z,9.60
2022-12-03T01:29:12.320Z,9.55
2022-12-03T01:31:59.061Z,8.82
2022-12-03T01:34:26.951Z,9.13
2022-12-03T01:36:54.811Z,9.27
2022-12-03T01:39:22.698Z,8.55
2022-12-03T01:41:50.936Z,8.45
2022-12-03T01:44:20.047Z,8.70
2022-12-03T01:46:49.317Z,9.00
2022-12-03T01:49:19.610Z,8.60
2022-12-03T01:51:47.588Z,8.85
2022-12-03T01:54:17.145Z,9.25
2022-12-03T01:56:45.333Z,8.48
2022-12-03T01:59:15.771Z,8.77
2022-12-03T02:01:43.686Z,8.95
2022-12-03T02:04:15.067Z,8.88
2022-12-03T02:06:43.122Z,8.48
2022-12-03T02:09:11.579Z,9.30
2022-12-03T02:11:40.858Z,9.32
2022-12-03T02:14:11.393Z,9.25
2022-12-03T02:16:39.576Z,8.90
2022-12-03T02:19:09.702Z,8.90
2022-12-03T02:21:42.185Z,9.38
2022-12-03T02:24:13.279Z,9.00
2022-12-03T02:26:42.679Z,9.02
2022-12-03T02:29:10.501Z,9.07
2022-12-03T02:31:38.447Z,9.13
2022-12-03T02:34:07.081Z,7.75
2022-12-03T02:36:34.944Z,8.55
2022-12-03T02:39:02.799Z,8.55
2022-12-03T02:41:48.228Z,8.77
2022-12-03T02:44:17.450Z,8.52
2022-12-03T02:46:45.345Z,8.65
2022-12-03T02:49:13.540Z,8.68
2022-12-03T02:51:41.423Z,8.25
2022-12-03T02:54:09.294Z,8.48
2022-12-03T02:56:37.197Z,8.25
2022-12-03T02:59:05.126Z,8.48
2022-12-03T03:01:35.125Z,8.75
2022-12-03T03:04:03.269Z,8.13
2022-12-03T03:06:31.135Z,8.27
2022-12-03T03:08:59.005Z,8.73
2022-12-03T03:11:26.872Z,8.43
2022-12-03T03:13:54.763Z,7.93
2022-12-03T03:16:22.702Z,8.35
2022-12-03T03:18:52.009Z,8.50
2022-12-03T03:21:20.122Z,8.60
2022-12-03T03:23:47.994Z,8.32
2022-12-03T03:26:16.660Z,7.95
2022-12-03T03:28:46.622Z,8.02
2022-12-03T03:31:15.478Z,8.15
2022-12-03T03:33:44.119Z,8.10
2022-12-03T03:36:13.346Z,7.78
2022-12-03T03:38:41.718Z,8.27
2022-12-03T03:41:09.596Z,8.13
2022-12-03T03:43:38.384Z,8.05
2022-12-03T03:46:06.554Z,7.60
2022-12-03T03:48:35.094Z,7.75
2022-12-03T03:51:03.550Z,7.85
2022-12-03T03:53:32.745Z,7.63
2022-12-03T03:56:00.635Z,7.60
2022-12-03T03:58:28.480Z,7.90
2022-12-03T04:00:56.376Z,7.43
2022-12-03T04:03:24.229Z,7.93
2022-12-03T04:05:52.132Z,7.78
2022-12-03T04:08:20.001Z,7.32
2022-12-03T04:11:06.634Z,7.80
2022-12-03T04:13:34.519Z,7.60
2022-12-03T04:16:02.453Z,7.30
2022-12-03T04:18:45.245Z,7.57
2022-12-03T04:21:31.107Z,7.45
2022-12-03T04:23:58.994Z,7.60
2022-12-03T04:26:45.863Z,7.05
2022-12-03T04:29:15.082Z,7.30
2022-12-03T04:32:00.754Z,6.88
2022-12-03T04:34:46.392Z,7.20
2022-12-03T04:37:14.242Z,7.43
2022-12-03T04:39:42.147Z,6.88
2022-12-03T04:42:11.351Z,7.05
2022-12-03T04:44:39.207Z,7.00
2022-12-03T04:47:09.379Z,7.05
2022-12-03T04:49:39.758Z,6.80
2022-12-03T04:52:07.716Z,6.70
2022-12-03T04:54:35.737Z,6.50
2022-12-03T04:57:03.793Z,6.80
2022-12-03T04:59:33.260Z,7.07
2022-12-03T05:02:01.158Z,6.68
2022-12-03T05:04:29.079Z,6.88
2022-12-03T05:06:56.957Z,6.90
2022-12-03T05:09:24.876Z,6.80
2022-12-03T05:11:52.688Z,6.75
2022-12-03T05:14:20.516Z,6.90
2022-12-03T05:16:49.781Z,6.75
2022-12-03T05:19:17.747Z,6.47
2022-12-03T05:21:44.638Z,6.55
2022-12-03T05:24:12.617Z,6.45
2022-12-03T05:26:40.449Z,6.20
2022-12-03T05:29:08.278Z,6.80
2022-12-03T05:31:36.234Z,6.57
2022-12-03T05:34:05.904Z,6.35
2022-12-03T05:36:33.785Z,6.40
2022-12-03T05:39:01.656Z,6.15
2022-12-03T05:41:47.170Z,6.80
2022-12-03T05:44:20.153Z,6.50
2022-12-03T05:46:48.438Z,6.95
2022-12-03T05:49:17.622Z,6.80
2022-12-03T05:51:45.483Z,6.57
2022-12-03T05:54:13.362Z,6.72
2022-12-03T05:56:41.281Z,6.70
2022-12-03T05:59:09.162Z,6.82
2022-12-03T06:01:37.002Z,6.88
2022-12-03T06:04:05.127Z,6.70
2022-12-03T06:06:34.419Z,7.10
2022-12-03T06:09:02.257Z,6.93
2022-12-03T06:11:30.306Z,6.82
2022-12-03T06:13:58.184Z,7.03
2022-12-03T06:16:26.129Z,6.93
2022-12-03T06:18:54.206Z,7.20
2022-12-03T06:21:22.124Z,7.38
2022-12-03T06:23:51.302Z,6.90
2022-12-03T06:26:19.172Z,6.80
2022-12-03T06:28:49.049Z,7.38
2022-12-03T06:31:16.970Z,7.22
2022-12-03T06:33:44.879Z,6.65
2022-12-03T06:36:13.205Z,7.45
2022-12-03T06:38:41.848Z,7.28
2022-12-03T06:41:11.044Z,7.07
2022-12-03T06:43:38.875Z,7.18
2022-12-03T06:46:06.947Z,6.88
2022-12-03T06:48:34.923Z,7.40
2022-12-03T06:51:02.786Z,6.90
2022-12-03T06:53:30.630Z,7.30
2022-12-03T06:55:58.483Z,7.28
2022-12-03T06:58:27.669Z,7.25
2022-12-03T07:00:55.531Z,7.22
2022-12-03T07:03:23.441Z,7.13
2022-12-03T07:05:51.342Z,7.13
2022-12-03T07:08:19.223Z,7.03
2022-12-03T07:10:47.141Z,7.05
2022-12-03T07:13:14.982Z,7.22
2022-12-03T07:15:44.226Z,6.82
2022-12-03T07:18:12.129Z,6.80
2022-12-03T07:20:40.023Z,6.57
2022-12-03T07:23:07.845Z,7.13
2022-12-03T07:25:35.704Z,6.72
2022-12-03T07:28:03.558Z,7.00
2022-12-03T07:30:31.455Z,7.53
2022-12-03T07:33:00.679Z,7.05
2022-12-03T07:35:28.551Z,6.65
2022-12-03T07:37:56.431Z,6.50
2022-12-03T07:40:24.393Z,6.97
2022-12-03T07:42:52.229Z,7.20
2022-12-03T07:45:20.068Z,6.95
2022-12-03T07:47:47.979Z,6.78
2022-12-03T07:50:17.590Z,7.13
2022-12-03T07:52:45.484Z,6.88
2022-12-03T07:55:13.674Z,6.85
2022-12-03T07:57:41.526Z,6.97
2022-12-03T08:00:10.295Z,6.53
2022-12-03T08:02:38.402Z,6.80
2022-12-03T08:05:06.959Z,6.72
2022-12-03T08:07:36.195Z,6.05
2022-12-03T08:10:04.437Z,6.75
2022-12-03T08:12:40.815Z,6.85
2022-12-03T08:15:13.137Z,6.30
2022-12-03T08:17:42.324Z,6.32
2022-12-03T08:20:14.480Z,6.78
2022-12-03T08:22:44.019Z,6.30
2022-12-03T08:25:15.758Z,6.63
2022-12-03T08:27:45.212Z,6.35
2022-12-03T08:30:14.213Z,6.60
2022-12-03T08:32:42.141Z,6.00
2022-12-03T08:35:13.327Z,6.85
2022-12-03T08:37:41.200Z,6.47
2022-12-03T08:40:25.380Z,6.20
2022-12-03T08:42:53.560Z,6.07
2022-12-03T08:45:39.536Z,7.00
2022-12-03T08:48:33.559Z,7.10
2022-12-03T08:51:20.343Z,6.63
2022-12-03T08:53:49.428Z,6.78
2022-12-03T08:56:23.450Z,6.38
2022-12-03T09:04:47.794Z,6.13
2022-12-03T09:07:15.884Z,6.63
2022-12-03T09:09:43.958Z,6.60
2022-12-03T09:12:13.431Z,6.72
2022-12-03T09:14:42.284Z,6.20
2022-12-03T09:17:10.254Z,6.18
2022-12-03T09:19:44.251Z,6.60
2022-12-03T09:22:15.190Z,5.80
2022-12-03T09:24:43.056Z,6.20
2022-12-03T09:27:10.908Z,7.97
2022-12-03T09:29:40.148Z,8.98
2022-12-03T09:32:08.101Z,10.18
2022-12-03T09:34:36.080Z,9.15
2022-12-03T09:37:03.916Z,9.00
2022-12-03T09:39:31.800Z,8.95
2022-12-03T09:41:59.709Z,9.30
2022-12-03T09:44:29.393Z,9.35
2022-12-03T09:46:59.947Z,11.05
2022-12-03T09:49:27.910Z,9.38
2022-12-03T09:51:56.527Z,9.65
2022-12-03T09:54:25.253Z,10.05
2022-12-03T09:56:53.190Z,9.27
2022-12-03T09:59:21.056Z,10.07
2022-12-03T10:01:49.161Z,9.27
2022-12-03T10:04:18.612Z,9.18
2022-12-03T10:06:46.585Z,9.10
2022-12-03T10:09:17.144Z,8.98
2022-12-03T10:11:45.099Z,10.73
2022-12-03T10:14:13.112Z,10.55
2022-12-03T10:16:41.461Z,11.55
2022-12-03T10:22:00.535Z,10.80
2022-12-03T10:24:30.114Z,12.00
2022-12-03T10:26:58.920Z,11.02
2022-12-03T10:29:33.282Z,11.57
2022-12-03T10:32:15.817Z,11.18
2022-12-03T10:34:44.682Z,11.13
2022-12-03T10:37:18.153Z,10.57
2022-12-03T10:39:56.890Z,10.60
2022-12-03T10:42:25.408Z,10.40
2022-12-03T10:45:14.284Z,10.02
2022-12-03T10:47:42.308Z,10.15
2022-12-03T10:50:16.900Z,10.20
2022-12-03T10:52:46.475Z,9.57
2022-12-03T10:55:14.829Z,9.90
2022-12-03T10:57:45.931Z,9.68
2022-12-03T11:00:18.197Z,9.40
2022-12-03T11:02:50.413Z,9.38
2022-12-03T11:05:41.982Z,9.57
2022-12-03T11:08:18.660Z,8.90
2022-12-03T11:10:47.081Z,9.20
2022-12-03T11:13:44.621Z,9.23
2022-12-03T11:16:36.714Z,8.65
2022-12-03T11:19:05.112Z,8.57
2022-12-03T11:21:33.283Z,8.68
2022-12-03T11:24:17.429Z,8.95
2022-12-03T11:27:18.727Z,8.63
2022-12-03T11:29:57.221Z,8.73
2022-12-03T11:36:31.651Z,8.45
2022-12-03T11:39:09.241Z,8.38
2022-12-03T11:45:27.082Z,8.20
2022-12-03T11:48:03.438Z,8.68
2022-12-03T11:50:39.006Z,8.75
2022-12-03T11:53:15.639Z,8.38
2022-12-03T11:55:48.335Z,7.85
2022-12-03T11:58:23.230Z,8.27
2022-12-03T12:00:52.114Z,8.20
2022-12-03T12:03:29.536Z,8.57
2022-12-03T12:06:03.739Z,7.78
2022-12-03T12:08:32.007Z,8.75
2022-12-03T12:11:01.609Z,8.23
2022-12-03T12:13:55.497Z,8.18
2022-12-03T12:16:45.839Z,7.88
2022-12-03T12:22:37.162Z,8.07
2022-12-03T12:25:37.030Z,8.30
2022-12-03T12:31:12.070Z,8.55
2022-12-03T12:37:03.229Z,8.75
2022-12-03T12:39:32.142Z,7.90
2022-12-03T12:42:05.642Z,8.10
2022-12-03T12:44:35.161Z,8.45
2022-12-03T12:47:07.101Z,8.70
2022-12-03T12:49:36.759Z,7.97
2022-12-03T12:52:07.102Z,8.57
2022-12-03T12:54:35.171Z,8.20
2022-12-03T12:57:03.349Z,8.73
2022-12-03T12:59:31.523Z,8.10
2022-12-03T13:02:04.575Z,8.15
2022-12-03T13:04:39.980Z,8.10
2022-12-03T13:07:09.707Z,8.65
2022-12-03T13:09:37.820Z,8.52
2022-12-03T13:12:08.767Z,8.65
2022-12-03T13:15:20.208Z,8.43
2022-12-03T13:17:49.789Z,8.15
2022-12-03T13:20:18.895Z,8.77
2022-12-03T13:26:38.688Z,8.40
2022-12-03T13:29:13.786Z,8.80
2022-12-03T13:31:44.206Z,8.20
2022-12-03T13:37:02.105Z,8.45
2022-12-03T13:39:32.084Z,8.52
2022-12-03T13:42:19.834Z,9.15
2022-12-03T13:44:49.246Z,8.65
2022-12-03T13:50:43.936Z,8.65
2022-12-03T13:53:17.420Z,8.55
2022-12-03T13:55:46.426Z,8.68
2022-12-03T13:58:14.532Z,8.48
2022-12-03T14:00:42.638Z,8.57
2022-12-03T14:11:33.235Z,8.73
2022-12-03T14:14:01.136Z,8.93
2022-12-03T14:16:31.120Z,8.27
2022-12-03T14:18:59.085Z,9.05
2022-12-03T14:21:32.327Z,8.90
2022-12-03T14:24:00.374Z,8.75
2022-12-03T14:29:11.424Z,8.55
2022-12-03T14:34:27.580Z,9.25
2022-12-03T14:36:55.484Z,8.75
2022-12-03T14:39:26.098Z,9.27
2022-12-03T14:42:12.964Z,8.57
2022-12-03T14:44:40.959Z,9.15
2022-12-03T14:47:08.977Z,8.98
2022-12-03T14:49:36.866Z,9.07
2022-12-03T14:52:08.623Z,8.60
2022-12-03T14:54:41.907Z,8.90
2022-12-03T14:57:27.687Z,9.10
2022-12-03T14:59:55.730Z,8.98
2022-12-03T15:02:35.153Z,9.48
2022-12-03T15:05:03.067Z,9.15
2022-12-03T15:07:31.840Z,9.02
2022-12-03T15:10:00.188Z,9.48
2022-12-03T15:12:29.389Z,9.32
2022-12-03T15:14:57.317Z,9.40
2022-12-03T15:21:25.137Z,9.95
2022-12-03T15:23:57.330Z,9.13
2022-12-03T15:26:25.311Z,9.82
2022-12-03T15:28:54.834Z,9.88
2022-12-03T15:31:22.780Z,9.70
2022-12-03T15:36:58.768Z,9.25
2022-12-03T15:39:26.951Z,9.88
2022-12-03T15:41:55.075Z,9.27
2022-12-03T15:44:24.500Z,9.50
2022-12-03T15:46:52.562Z,9.13
2022-12-03T15:49:23.565Z,9.45
2022-12-03T15:51:51.654Z,9.20
2022-12-03T15:54:19.704Z,9.35
2022-12-03T15:56:50.489Z,8.90
2022-12-03T15:59:20.852Z,9.07
2022-12-03T16:01:50.175Z,9.32
2022-12-03T16:04:30.648Z,8.93
2022-12-03T16:07:00.546Z,9.95
2022-12-03T16:09:39.199Z,9.43
2022-12-03T16:12:07.263Z,9.38
2022-12-03T16:14:35.464Z,9.05
2022-12-03T16:17:16.785Z,9.30
2022-12-03T16:19:44.702Z,9.52
2022-12-03T16:22:13.136Z,9.77
2022-12-03T16:25:27.373Z,9.23
2022-12-03T16:28:32.082Z,8.23
2022-12-03T16:31:04.143Z,8.95
2022-12-03T16:33:34.932Z,9.18
2022-12-03T16:36:36.748Z,9.73
2022-12-03T16:39:33.705Z,9.18
2022-12-03T16:42:25.765Z,9.45
2022-12-03T16:45:36.636Z,9.25
2022-12-03T16:48:05.128Z,9.13
2022-12-03T16:50:37.159Z,9.63
2022-12-03T16:53:07.030Z,8.93
2022-12-03T16:55:35.108Z,9.18
2022-12-03T16:58:03.326Z,9.35
2022-12-03T17:00:31.406Z,8.95
2022-12-03T17:02:59.488Z,9.75
2022-12-03T17:05:27.583Z,9.25
2022-12-03T17:07:57.000Z,8.85
2022-12-03T17:10:25.218Z,9.38
2022-12-03T17:13:10.098Z,8.82
2022-12-03T17:15:38.804Z,8.93
2022-12-03T17:18:07.531Z,9.20
2022-12-03T17:20:36.338Z,8.80
2022-12-03T17:23:05.771Z,9.45
2022-12-03T17:25:34.351Z,9.05
2022-12-03T17:28:02.524Z,9.70
2022-12-03T17:30:30.653Z,9.40
2022-12-03T17:32:58.849Z,9.07
2022-12-03T17:35:28.483Z,9.23
2022-12-03T17:37:56.667Z,8.75
2022-12-03T17:40:26.086Z,9.27
2022-12-03T17:42:54.006Z,9.23
2022-12-03T17:45:21.928Z,8.98
2022-12-03T17:47:49.816Z,9.32
2022-12-03T17:50:17.924Z,9.35
2022-12-03T17:52:45.860Z,9.07
2022-12-03T17:55:22.261Z,9.20
2022-12-03T17:57:57.343Z,8.90
2022-12-03T18:00:25.242Z,9.60
2022-12-03T18:02:53.115Z,9.55
2022-12-03T18:05:22.906Z,9.38
2022-12-03T18:07:50.852Z,9.32
2022-12-03T18:10:18.890Z,9.43
2022-12-03T18:12:46.747Z,9.13
2022-12-03T18:15:16.030Z,8.93
2022-12-03T18:17:43.963Z,9.38
2022-12-03T18:20:12.084Z,9.35
2022-12-03T18:22:39.993Z,9.65
2022-12-03T18:25:08.623Z,9.40
2022-12-03T18:27:36.526Z,9.57
2022-12-03T18:30:04.683Z,9.25
2022-12-03T18:32:33.932Z,9.63
2022-12-03T18:35:01.820Z,9.93
2022-12-03T18:37:30.158Z,8.98
2022-12-03T18:39:58.589Z,10.20
2022-12-03T18:42:26.662Z,9.23
2022-12-03T18:44:55.520Z,9.45
2022-12-03T18:47:24.326Z,9.60
2022-12-03T18:49:54.447Z,10.07
2022-12-03T18:52:23.370Z,9.45
2022-12-03T18:54:51.319Z,8.77
2022-12-03T18:57:19.166Z,9.27
2022-12-03T18:59:47.137Z,9.32
2022-12-03T19:02:38.433Z,9.20
2022-12-03T19:05:06.819Z,9.80
2022-12-03T19:07:34.792Z,9.60
2022-12-03T19:10:03.076Z,9.88
2022-12-03T19:12:31.180Z,9.25
2022-12-03T19:14:59.097Z,8.85
2022-12-03T19:17:27.292Z,9.82
2022-12-03T19:19:55.692Z,9.13
2022-12-03T19:22:25.281Z,9.75
2022-12-03T19:24:53.258Z,9.43
2022-12-03T19:27:21.154Z,9.05
2022-12-03T19:29:49.265Z,9.38
2022-12-03T19:32:17.282Z,9.68
2022-12-03T19:34:45.151Z,9.60
2022-12-03T19:37:13.068Z,9.40
2022-12-03T19:39:43.188Z,9.45
2022-12-03T19:42:11.093Z,9.85
2022-12-03T19:44:39.193Z,10.27
2022-12-03T19:47:07.122Z,9.20
2022-12-03T19:49:35.153Z,10.02
2022-12-03T19:52:03.069Z,9.73
2022-12-03T19:54:30.985Z,9.25
2022-12-03T19:57:00.302Z,10.10
2022-12-03T19:59:28.196Z,9.70
2022-12-03T20:01:56.165Z,9.38
2022-12-03T20:04:24.065Z,10.02
2022-12-03T20:06:51.951Z,9.70
2022-12-03T20:09:21.090Z,9.40
2022-12-03T20:11:51.019Z,9.73
2022-12-03T20:14:20.487Z,9.80
2022-12-03T20:16:48.453Z,9.63
2022-12-03T20:19:17.313Z,10.10
2022-12-03T20:21:45.287Z,9.43
2022-12-03T20:24:15.143Z,9.65
2022-12-03T20:26:43.241Z,10.10
2022-12-03T20:29:11.156Z,10.15
2022-12-03T20:31:40.532Z,10.10
2022-12-03T20:34:08.448Z,9.35
2022-12-03T20:36:37.031Z,9.93
2022-12-03T20:39:06.711Z,9.80
2022-12-03T20:41:35.554Z,9.98
2022-12-03T20:44:03.478Z,10.02
2022-12-03T20:46:32.870Z,9.63
2022-12-03T20:49:02.150Z,9.98
2022-12-03T20:51:30.741Z,10.38
2022-12-03T20:53:59.143Z,9.77
2022-12-03T20:56:27.872Z,10.32
2022-12-03T20:58:56.958Z,10.60
2022-12-03T21:01:26.629Z,10.15
2022-12-03T21:03:55.180Z,9.85
2022-12-03T21:06:24.873Z,10.38
2022-12-03T21:08:53.644Z,9.80
2022-12-03T21:11:22.988Z,9.98
2022-12-03T21:13:50.975Z,9.93
2022-12-03T21:16:34.157Z,9.95
2022-12-03T21:19:07.801Z,10.48
2022-12-03T21:21:37.112Z,10.27
2022-12-03T21:24:05.499Z,10.40
2022-12-03T21:26:33.617Z,10.23
2022-12-03T21:29:01.529Z,9.82
2022-12-03T21:31:31.488Z,10.15
2022-12-03T21:33:59.529Z,10.48
2022-12-03T21:36:27.450Z,10.60
2022-12-03T21:38:56.690Z,9.75
2022-12-03T21:41:24.646Z,10.55
2022-12-03T21:43:52.513Z,10.32
2022-12-03T21:47:12.280Z,9.80
2022-12-03T21:49:08.340Z,9.85
2022-12-03T21:51:36.283Z,10.25
2022-12-03T21:54:05.654Z,10.40
2022-12-03T21:56:33.565Z,10.40
2022-12-03T21:59:01.461Z,10.23
2022-12-03T22:01:29.508Z,9.95
2022-12-03T22:03:57.490Z,10.65
2022-12-03T22:06:25.416Z,10.23
2022-12-03T22:08:53.332Z,10.30
2022-12-03T22:11:23.854Z,10.52
2022-12-03T22:13:51.763Z,10.10
2022-12-03T22:16:20.925Z,10.43
2022-12-03T22:18:49.017Z,10.18
2022-12-03T22:21:17.937Z,10.65
2022-12-03T22:23:45.862Z,10.90
2022-12-03T22:26:14.526Z,11.05
2022-12-03T22:28:44.990Z,10.05
2022-12-03T22:31:13.173Z,10.05
2022-12-03T22:33:41.125Z,10.23
2022-12-03T22:36:14.642Z,10.52
2022-12-03T22:38:46.190Z,10.48
2022-12-03T22:41:14.633Z,11.48
2022-12-03T22:43:43.921Z,10.50
2022-12-03T22:46:12.723Z,10.82
2022-12-03T22:48:41.268Z,11.27
2022-12-03T22:51:11.575Z,10.73
2022-12-03T22:53:39.536Z,11.38
2022-12-03T22:56:07.629Z,11.15
2022-12-03T22:58:35.647Z,11.15
2022-12-03T23:01:04.891Z,11.05
2022-12-03T23:03:32.899Z,10.90
2022-12-03T23:06:00.821Z,11.60
2022-12-03T23:08:28.712Z,11.15
2022-12-03T23:11:00.824Z,11.23
2022-12-03T23:13:28.816Z,11.15
2022-12-03T23:15:56.754Z,11.20
2022-12-03T23:18:26.040Z,10.80
2022-12-03T23:20:55.279Z,11.40
2022-12-03T23:23:23.974Z,11.55
2022-12-03T23:25:57.662Z,10.90
2022-12-03T23:28:25.590Z,11.05
2022-12-03T23:30:53.481Z,10.63
2022-12-03T23:33:21.397Z,11.73
2022-12-03T23:35:50.786Z,11.20
2022-12-03T23:38:18.718Z,12.02
2022-12-03T23:40:48.379Z,11.45
2022-12-03T23:43:16.607Z,11.25
2022-12-03T23:45:44.584Z,11.63
2022-12-03T23:48:12.881Z,11.50
2022-12-03T23:50:41.288Z,11.45
2022-12-03T23:53:10.520Z,11.25
2022-12-03T23:55:40.660Z,11.07
2022-12-03T23:58:08.563Z,11.18
